Elcho, Wisconsin
Current Conditions -  °F | °C
As of 3:49 PM on Wednesday 17 Dec 2014 (Local Time) from KRHI Reporting Station
Overcast Overcast  
Wind Chill: 10°   Ceiling: 1400
Heat Index: 19°   Visibility: 10mi
Dew Point: 16°   Wind: 7mph
Humidity: 86%   Direction: 300°WNW
Pressure: 30.16"   Gusts: NA
Location:  45.44°N, 89.18°W
Report Text: KRHI 172149Z AUTO 30006KT 10SM OVC014 M07/M09 A3016 RMK AO2
Loading
Personal Weather Stations






























Interactive Weather Map New forecast layout! Learn more

10-Day Weather Forecast

Advertisements
Track Severe Weather on mobile